Airway Heights, WA

11:54 AM PST on November 27, 2014 (GMT -0800)
Spokane International | Change Station
CLOSE
Current Station
Airport
Location: Spokane,
Elevation: 2365 ft
Nearby Weather Stations

Elev 2365 ft 47.62 °N, 117.53 °W | Updated 1 hour ago

Partly Cloudy
Partly Cloudy
53 °F
Feels Like 53 °F
N
20
Wind Variable Wind from SW
Gusts 29 mph

Today
High -- | Low -- °F
--% Chance of Precip.
Yesterday
High -- | Low -- °F
Precip. -- in
7:12 AM 4:02 PM
Waxing Crescent, 32% visible
Pressure 29.87 in
Visibility 10.0 miles
Clouds Few 3000 ft
Scattered Clouds 6000 ft
Dew Point 42 °F
Humidity 66%
Rainfall 0.00 in
Snow Depth Not available.
UV 1 out of 12
Pollen .40 out of 12
Air Quality Not available.
Flu Activity Not available.
METAR KGEG 271853Z 22017G25KT 10SM FEW030 SCT060 12/06 A2986 RMK AO2 PK WND 22031/1815 SLP114 T01170056

More Conditions Fewer Conditions

Pressure 29.87 in
Visibility 10.0 miles
Clouds Few 3000 ft
Scattered Clouds 6000 ft
Dew Point 42 °F
Humidity 66%
Rainfall 0.00 in
Snow Depth Not available.
UV 1 out of 12
Pollen .40 out of 12
Air Quality Not available.
Flu Activity Not available.
METAR KGEG 271853Z 22017G25KT 10SM FEW030 SCT060 12/06 A2986 RMK AO2 PK WND 22031/1815 SLP114 T01170056

More Conditions Fewer Conditions

10-Day Weather Forecast

Almanac

Astronomy

Nov. 27, 2014 Rise Set
Actual Time
Civil Twilight
Nautical Twilight
Astronomical Twilight
Moon
Length of Visible Light
Length of Day
Tomorrow will be .
, % of the Moon is Illuminated

Today's Extremes

State Highs State Lows

Community

WunderPhotos

Upload Photos

1,774,094 photos uploaded!

WunderBlogs® & News

Nearby

Air Quality

  Air Quality AQ Index Pollutant
Not available.

Snow Depth

Station Depth Elevation

Earthquake Activity

City Distance Mag. Time & Date
Minimum magnitude displayed is 2.5.

Coastal Water Temperatures

Place Temperature

Nearby Weather Stations